Storm Events Database

Event Details

Event Thunderstorm Wind
Magnitude 52 kts.
State KENTUCKY
County/Area FLEMING
WFO JKL
Report Source Law Enforcement
NCDC Data Source CSV
Begin Date 2008-02-06 02:09:00.0 EST-5
Begin Location 10SSW FLEMINGSBURG
Begin Lat/Lon 38.29/-83.8
End Date 2008-02-06 02:13:00.0 EST-5
Deaths Direct/Indirect 0/0 (fatality details below, when available...)
Injuries Direct/Indirect 0/0
Property Damage 10.00K
Crop Damage 0.00K
Episode Narrative A strong cold front approached the region during the overnight and early morning hours of February 6th. Widespread wind damage was reported across the area, with trees and power lines blown down, and numerous reports of structural damage. Heavy rain also resulted in flash flooding across the area. Two tornadoes touched down in Eastern Kentucky as well.
Event Narrative Trees were blown down and across Highway 111 at Grange City and Hillsboro.


     ‚Äč



All events for this episode:

Location County/Zone St. Date Time T.Z. Type Mag Dth Inj PrD CrD
Totals: 0 0 861.00K 0.00K
EWING FLEMING CO. KY 02/06/2008 01:52 EST-5 Thunderstorm Wind 50 kts. EG 0 0 8.00K 0.00K
MT STERLING MONTGOMERY CO. KY 02/06/2008 01:58 EST-5 Thunderstorm Wind 55 kts. EG 0 0 35.00K 0.00K
LESLIE (ZONE) LESLIE (ZONE) KY 02/06/2008 02:00 EST-5 Strong Wind 46 kts. EG 0 0 10.00K 0.00K
CAMARGO MONTGOMERY CO. KY 02/06/2008 02:01 EST-5 Thunderstorm Wind 54 kts. EG 0 0 50.00K 0.00K
OWINGSVILLE BATH CO. KY 02/06/2008 02:02 EST-5 Thunderstorm Wind 60 kts. EG 0 0 100.00K 0.00K
CLAY CITY POWELL CO. KY 02/06/2008 02:04 EST-5 Thunderstorm Wind 56 kts. EG 0 0 0.00K 0.00K
FLEMINGSBURG FLEMING CO. KY 02/06/2008 02:05 EST-5 Thunderstorm Wind 52 kts. EG 0 0 5.00K 0.00K
CLAY CITY POWELL CO. KY 02/06/2008 02:06 EST-5 Thunderstorm Wind 58 kts. EG 0 0 35.00K 0.00K
KENDALL SPGS BATH CO. KY 02/06/2008 02:06 EST-5 Tornado EF1 0 0 250.00K 0.00K
KENDALL SPGS BATH CO. KY 02/06/2008 02:06 EST-5 Thunderstorm Wind 50 kts. EG 0 0 10.00K 0.00K
BETHEL BATH CO. KY 02/06/2008 02:09 EST-5 Thunderstorm Wind 55 kts. EG 0 0 40.00K 0.00K
FLEMINGSBURG FLEMING CO. KY 02/06/2008 02:09 EST-5 Thunderstorm Wind 52 kts. EG 0 0 10.00K 0.00K
IRVINE ESTILL CO. KY 02/06/2008 02:12 EST-5 Thunderstorm Wind 55 kts. EG 0 0 50.00K 0.00K
SLADE POWELL CO. KY 02/06/2008 02:20 EST-5 Thunderstorm Wind 50 kts. EG 0 0 1.00K 0.00K
LESLIE (ZONE) LESLIE (ZONE) KY 02/06/2008 02:20 EST-5 Strong Wind 46 kts. EG 0 0 1.00K 0.00K
LESLIE (ZONE) LESLIE (ZONE) KY 02/06/2008 02:20 EST-5 Strong Wind 46 kts. EG 0 0 1.00K 0.00K
DENNISTON MENIFEE CO. KY 02/06/2008 02:23 EST-5 Tornado EF0 0 0 50.00K 0.00K
MOREHEAD ROWAN CO. KY 02/06/2008 02:23 EST-5 Thunderstorm Wind 50 kts. EG 0 0 0.00K 0.00K
DENNISTON MENIFEE CO. KY 02/06/2008 02:25 EST-5 Thunderstorm Wind 52 kts. EG 0 0 50.00K 0.00K
ELLIOTTVILLE ROWAN CO. KY 02/06/2008 02:27 EST-5 Thunderstorm Wind 50 kts. EG 0 0 2.00K 0.00K
LESLIE (ZONE) LESLIE (ZONE) KY 02/06/2008 02:28 EST-5 Strong Wind 46 kts. EG 0 0 1.00K 0.00K
LESLIE (ZONE) LESLIE (ZONE) KY 02/06/2008 02:29 EST-5 Strong Wind 46 kts. EG 0 0 1.00K 0.00K
CAMPTON WOLFE CO. KY 02/06/2008 02:35 EST-5 Thunderstorm Wind 51 kts. EG 0 0 5.00K 0.00K
CAMPTON WOLFE CO. KY 02/06/2008 02:35 EST-5 Thunderstorm Wind 53 kts. EG 0 0 3.00K 0.00K
CAMPTON WOLFE CO. KY 02/06/2008 02:35 EST-5 Thunderstorm Wind 50 kts. EG 0 0 7.00K 0.00K
EZEL MORGAN CO. KY 02/06/2008 02:35 EST-5 Thunderstorm Wind 51 kts. EG 0 0 3.00K 0.00K
ZACHARIAH LEE CO. KY 02/06/2008 02:35 EST-5 Thunderstorm Wind 54 kts. EG 0 0 5.00K 0.00K
WEST LIBERTY MORGAN CO. KY 02/06/2008 02:40 EST-5 Thunderstorm Wind 53 kts. EG 0 0 5.00K 0.00K
LESLIE (ZONE) LESLIE (ZONE) KY 02/06/2008 02:52 EST-5 Strong Wind 46 kts. EG 0 0 1.00K 0.00K
ROUSSEAU BREATHITT CO. KY 02/06/2008 02:59 EST-5 Thunderstorm Wind 50 kts. EG 0 0 2.00K 0.00K
LESLIE (ZONE) LESLIE (ZONE) KY 02/06/2008 02:59 EST-5 Strong Wind 46 kts. EG 0 0 1.00K 0.00K
SALYERSVILLE MAGOFFIN CO. KY 02/06/2008 03:10 EST-5 Thunderstorm Wind 52 kts. EG 0 0 8.00K 0.00K
CHENOWEE BREATHITT CO. KY 02/06/2008 03:11 EST-5 Thunderstorm Wind 53 kts. EG 0 0 5.00K 0.00K
PAINTSVILLE JOHNSON CO. KY 02/06/2008 03:13 EST-5 Thunderstorm Wind 55 kts. EG 0 0 30.00K 0.00K
BRAINARD FLOYD CO. KY 02/06/2008 03:25 EST-5 Thunderstorm Wind 53 kts. EG 0 0 6.00K 0.00K
DOTSON FLOYD CO. KY 02/06/2008 03:25 EST-5 Thunderstorm Wind 53 kts. EG 0 0 5.00K 0.00K
INEZ MARTIN CO. KY 02/06/2008 03:25 EST-5 Thunderstorm Wind 50 kts. EG 0 0 2.00K 0.00K
LANCER FLOYD CO. KY 02/06/2008 03:30 EST-5 Thunderstorm Wind 54 kts. EG 0 0 2.00K 0.00K
SALYERSVILLE MAGOFFIN CO. KY 02/06/2008 03:30 EST-5 Thunderstorm Wind 54 kts. EG 0 0 10.00K 0.00K
GULNARE PIKE CO. KY 02/06/2008 04:15 EST-5 Thunderstorm Wind 50 kts. EG 0 0 2.00K 0.00K
SCIENCE HILL PULASKI CO. KY 02/06/2008 04:15 EST-5 Thunderstorm Wind 50 kts. EG 0 0 2.00K 0.00K
SCIENCE HILL PULASKI CO. KY 02/06/2008 04:16 EST-5 Thunderstorm Wind 50 kts. EG 0 0 2.00K 0.00K
EUBANK PULASKI CO. KY 02/06/2008 04:18 EST-5 Thunderstorm Wind 51 kts. EG 0 0 3.00K 0.00K
BELL (ZONE) BELL (ZONE) KY 02/06/2008 05:30 EST-5 Strong Wind 46 kts. EG 0 0 2.00K 0.00K
BRODHEAD ROCKCASTLE CO. KY 02/06/2008 06:52 EST-5 Flash Flood 0 0 0.00K 0.00K
JEFF PERRY CO. KY 02/06/2008 07:12 EST-5 Thunderstorm Wind 50 kts. EG 0 0 1.00K 0.00K
HAZARD PERRY CO. KY 02/06/2008 07:19 EST-5 Thunderstorm Wind 53 kts. EG 0 0 8.00K 0.00K
PRESTONSBURG FLOYD CO. KY 02/06/2008 07:21 EST-5 Thunderstorm Wind 53 kts. EG 0 0 5.00K 0.00K
HYDEN LESLIE CO. KY 02/06/2008 07:25 EST-5 Thunderstorm Wind 53 kts. EG 0 0 5.00K 0.00K
HYDEN LESLIE CO. KY 02/06/2008 07:30 EST-5 Hail 0.88 in. 0 0 0.00K 0.00K
BLACK SNAKE BELL CO. KY 02/06/2008 07:54 EST-5 Thunderstorm Wind 50 kts. EG 0 0 1.00K 0.00K
MIDDLESBORO BELL CO. KY 02/06/2008 07:59 EST-5 Thunderstorm Wind 53 kts. EG 0 0 8.00K 0.00K
GORDON LETCHER CO. KY 02/06/2008 08:20 EST-5 Thunderstorm Wind 50 kts. EG 0 0 1.00K 0.00K
DOBBINS ELLIOTT CO. KY 02/06/2008 10:28 EST-5 Flood 0 0 0.00K 0.00K
WEST LIBERTY MORGAN CO. KY 02/06/2008 15:00 EST-5 Thunderstorm Wind 50 kts. EG 0 0 1.00K 0.00K
PRESTONSBURG FLOYD CO. KY 02/06/2008 15:24 EST-5 Thunderstorm Wind 50 kts. EG 0 0 5.00K 0.00K
WHITEHOUSE JOHNSON CO. KY 02/06/2008 15:30 EST-5 Thunderstorm Wind 50 kts. EG 0 0 2.00K 0.00K
BREATHITT (ZONE) BREATHITT (ZONE) KY 02/06/2008 15:50 EST-5 Strong Wind 46 kts. EG 0 0 1.00K 0.00K
GULNARE PIKE CO. KY 02/06/2008 16:15 EST-5 Thunderstorm Wind 51 kts. EG 0 0 2.00K 0.00K
MARTIN (ZONE) MARTIN (ZONE) KY 02/06/2008 17:58 EST-5 High Wind 54 kts. EG 0 0 0.00K 0.00K
CLAY CITY POWELL CO. KY 02/07/2008 11:07 EST-5 Flood 0 0 0.00K 0.00K
WALTERSVILLE POWELL CO. KY 02/07/2008 13:30 EST-5 Flood 0 0 0.00K 0.00K
Totals: 0 0 861.00K 0.00K